Time;durP1;ratioP1;P1;durP2;ratioP2;P2;SDS_P1;SDS_P2;PMS_P1;PMS_P2;Temp;Humidity;BMP_temperature;BMP_pressure;BME280_temperature;BME280_humidity;BME280_pressure;Samples;Min_cycle;Max_cycle;Signal;HPM_P1;HPM_P2
2022/06/14 00:02:58;;;;;;;1.77;1.67;;;;;;;;;;5040169;28;25089;-46
2022/06/14 00:05:23;;;;;;;1.70;1.60;;;;;;;;;;5073352;28;24479;-46
2022/06/14 00:07:48;;;;;;;2.20;2.00;;;;;;;;;;5065833;28;24422;-46
2022/06/14 00:10:13;;;;;;;2.30;1.60;;;;;;;;;;5060254;28;24422;-46
2022/06/14 00:12:38;;;;;;;1.85;1.75;;;;;;;;;;5056393;28;24510;-46
2022/06/14 00:15:04;;;;;;;2.30;1.80;;;;;;;;;;5056371;28;24437;-45
2022/06/14 00:17:29;;;;;;;1.75;1.65;;;;;;;;;;5071795;28;24460;-46
2022/06/14 00:19:55;;;;;;;2.00;1.50;;;;;;;;;;5060319;28;24476;-46
2022/06/14 00:22:20;;;;;;;3.17;1.83;;;;;;;;;;5060459;28;24509;-46
2022/06/14 00:24:45;;;;;;;1.70;1.60;;;;;;;;;;5064165;28;24904;-46
2022/06/14 00:27:10;;;;;;;1.80;1.70;;;;;;;;;;5052775;28;24429;-46
2022/06/14 00:29:35;;;;;;;2.10;1.40;;;;;;;;;;5064227;28;24422;-47
2022/06/14 00:32:00;;;;;;;3.00;1.60;;;;;;;;;;5055774;28;24423;-46
2022/06/14 00:34:26;;;;;;;1.70;1.55;;;;;;;;;;5063799;28;24866;-46
2022/06/14 00:36:52;;;;;;;1.77;1.50;;;;;;;;;;5058722;28;24462;-46
2022/06/14 00:39:18;;;;;;;1.98;1.77;;;;;;;;;;5055912;28;24505;-46
2022/06/14 00:41:44;;;;;;;2.10;1.90;;;;;;;;;;5056851;28;24518;-47
2022/06/14 00:44:14;;;;;;;1.90;1.70;;;;;;;;;;5055455;28;24800;-46
2022/06/14 00:46:48;;;;;;;1.80;1.70;;;;;;;;;;5057398;28;24431;-46
2022/06/14 00:49:19;;;;;;;2.40;1.60;;;;;;;;;;5064706;28;24619;-46
2022/06/14 00:51:50;;;;;;;2.47;1.70;;;;;;;;;;5070639;28;25054;-47
2022/06/14 00:54:27;;;;;;;2.25;1.52;;;;;;;;;;5048719;28;24526;-47
2022/06/14 00:56:54;;;;;;;2.10;1.80;;;;;;;;;;5053949;28;25541;-47
2022/06/14 00:59:25;;;;;;;1.80;1.50;;;;;;;;;;5064764;28;25001;-47
2022/06/14 01:01:51;;;;;;;2.45;1.50;;;;;;;;;;5061476;28;24435;-47
2022/06/14 01:04:19;;;;;;;1.83;1.70;;;;;;;;;;5065148;28;24419;-46
2022/06/14 01:06:58;;;;;;;3.03;1.70;;;;;;;;;;5069280;28;24425;-46
2022/06/14 01:09:28;;;;;;;1.60;1.50;;;;;;;;;;5060398;28;24496;-46
2022/06/14 01:12:14;;;;;;;1.70;1.50;;;;;;;;;;5065352;28;24426;-47
2022/06/14 01:14:45;;;;;;;2.75;1.75;;;;;;;;;;5055442;28;24813;-47
2022/06/14 01:17:11;;;;;;;2.20;1.60;;;;;;;;;;5070571;28;24421;-47
2022/06/14 01:19:37;;;;;;;3.53;2.00;;;;;;;;;;5058383;28;24423;-47
2022/06/14 01:22:20;;;;;;;2.20;1.85;;;;;;;;;;5063539;28;24441;-47
2022/06/14 01:24:45;;;;;;;2.15;1.70;;;;;;;;;;5068454;28;24952;-47
2022/06/14 01:27:13;;;;;;;1.70;1.60;;;;;;;;;;5056785;28;24430;-55
2022/06/14 01:29:41;;;;;;;2.45;1.80;;;;;;;;;;5060759;28;24433;-47
2022/06/14 01:32:08;;;;;;;1.80;1.55;;;;;;;;;;5063910;28;24588;-47
2022/06/14 01:34:36;;;;;;;1.90;1.50;;;;;;;;;;5072833;28;24421;-47
2022/06/14 01:37:02;;;;;;;2.70;1.80;;;;;;;;;;5058489;28;25003;-47
2022/06/14 01:39:27;;;;;;;2.30;1.70;;;;;;;;;;5056808;28;25157;-47
2022/06/14 01:42:22;;;;;;;2.00;1.60;;;;;;;;;;5072928;28;24625;-47
2022/06/14 01:45:00;;;;;;;2.00;1.90;;;;;;;;;;5049622;28;25046;-47
2022/06/14 01:47:33;;;;;;;2.00;1.90;;;;;;;;;;5068185;28;24423;-47
2022/06/14 01:53:07;;;;;;;2.47;1.80;;;;;;;;;;5059040;28;24465;-47
2022/06/14 01:55:45;;;;;;;2.30;1.88;;;;;;;;;;5068937;28;24534;-48
2022/06/14 01:58:10;;;;;;;1.95;1.85;;;;;;;;;;5050676;28;24476;-47
2022/06/14 02:00:39;;;;;;;1.70;1.60;;;;;;;;;;5062088;28;24481;-46
2022/06/14 02:05:59;;;;;;;2.00;1.80;;;;;;;;;;5068923;28;24532;-46
2022/06/14 02:08:26;;;;;;;1.60;1.50;;;;;;;;;;5055836;28;24513;-48
2022/06/14 02:10:51;;;;;;;2.83;2.00;;;;;;;;;;5067521;28;24973;-47
2022/06/14 02:13:19;;;;;;;2.03;1.83;;;;;;;;;;5055046;28;24964;-46
2022/06/14 02:16:04;;;;;;;1.80;1.70;;;;;;;;;;5057353;28;24518;-46
2022/06/14 02:18:42;;;;;;;2.33;1.90;;;;;;;;;;5059326;28;24423;-46
2022/06/14 02:21:13;;;;;;;2.95;1.80;;;;;;;;;;5065809;28;24414;-47
2022/06/14 02:23:41;;;;;;;2.40;1.77;;;;;;;;;;5070624;28;24792;-47
2022/06/14 02:26:28;;;;;;;1.75;1.60;;;;;;;;;;5070954;28;24438;-47
2022/06/14 02:28:56;;;;;;;1.98;1.77;;;;;;;;;;5054035;28;24951;-47
2022/06/14 02:31:36;;;;;;;2.00;1.80;;;;;;;;;;5061201;28;24442;-47
2022/06/14 02:34:19;;;;;;;2.40;1.70;;;;;;;;;;5065216;28;24437;-47
2022/06/14 02:37:04;;;;;;;2.28;1.90;;;;;;;;;;5063366;28;24403;-47
2022/06/14 02:39:33;;;;;;;2.53;1.80;;;;;;;;;;5052827;28;24434;-46
2022/06/14 02:42:06;;;;;;;2.45;1.90;;;;;;;;;;5060285;28;24517;-45
2022/06/14 02:44:44;;;;;;;1.80;1.70;;;;;;;;;;5063625;28;24484;-46
2022/06/14 02:47:19;;;;;;;2.67;1.83;;;;;;;;;;5062576;28;24877;-47
2022/06/14 02:49:47;;;;;;;2.30;2.10;;;;;;;;;;5063587;28;24425;-47
2022/06/14 02:52:15;;;;;;;2.20;1.52;;;;;;;;;;5060306;28;24423;-47
2022/06/14 02:54:44;;;;;;;2.30;1.70;;;;;;;;;;5058698;28;24418;-47
2022/06/14 02:57:20;;;;;;;2.70;2.00;;;;;;;;;;5063339;28;24789;-46
2022/06/14 03:00:04;;;;;;;2.00;1.60;;;;;;;;;;5068964;28;24426;-47
2022/06/14 03:02:42;;;;;;;2.53;1.85;;;;;;;;;;5061985;28;25063;-45
2022/06/14 03:05:26;;;;;;;2.40;2.20;;;;;;;;;;5065377;28;24421;-47
2022/06/14 03:08:03;;;;;;;3.15;2.03;;;;;;;;;;5068892;28;24423;-46
2022/06/14 03:10:53;;;;;;;2.20;1.83;;;;;;;;;;5060704;28;24419;-47
2022/06/14 03:13:52;;;;;;;2.33;2.03;;;;;;;;;;5060907;28;24747;-47
2022/06/14 03:16:34;;;;;;;2.20;1.80;;;;;;;;;;5059709;28;25000;-46
2022/06/14 03:19:01;;;;;;;2.40;2.05;;;;;;;;;;5060344;28;24434;-46
2022/06/14 03:21:56;;;;;;;2.10;1.90;;;;;;;;;;5056342;28;24485;-46
2022/06/14 03:24:29;;;;;;;2.75;1.80;;;;;;;;;;5039723;28;24525;-47
2022/06/14 03:27:05;;;;;;;3.05;2.03;;;;;;;;;;5064285;28;24426;-46
2022/06/14 03:29:42;;;;;;;1.98;1.60;;;;;;;;;;5056788;28;25179;-46
2022/06/14 03:32:22;;;;;;;2.05;1.73;;;;;;;;;;5057941;28;24827;-47
2022/06/14 03:34:49;;;;;;;2.75;1.90;;;;;;;;;;5058607;28;24430;-46
2022/06/14 03:37:15;;;;;;;1.97;1.80;;;;;;;;;;5063963;28;24501;-46
2022/06/14 03:39:45;;;;;;;2.50;1.80;;;;;;;;;;5054741;28;24427;-46
2022/06/14 03:42:11;;;;;;;2.53;1.95;;;;;;;;;;5065473;28;24442;-46
2022/06/14 03:44:37;;;;;;;2.30;1.80;;;;;;;;;;5070777;28;24449;-47
2022/06/14 03:47:17;;;;;;;2.30;1.90;;;;;;;;;;5060829;28;24492;-51
2022/06/14 03:49:48;;;;;;;2.45;2.25;;;;;;;;;;5065949;28;24434;-48
2022/06/14 03:52:16;;;;;;;4.30;2.20;;;;;;;;;;5078001;28;24437;-46
2022/06/14 03:54:44;;;;;;;3.00;2.00;;;;;;;;;;5062617;28;24414;-46
2022/06/14 03:57:12;;;;;;;2.15;1.80;;;;;;;;;;5053605;28;24458;-46
2022/06/14 04:00:03;;;;;;;2.25;1.70;;;;;;;;;;5062626;28;24510;-45
2022/06/14 04:02:53;;;;;;;2.33;1.75;;;;;;;;;;5075592;28;24659;-45
2022/06/14 04:05:29;;;;;;;5.47;1.98;;;;;;;;;;5062315;28;24952;-46
2022/06/14 04:08:03;;;;;;;3.58;1.70;;;;;;;;;;5060209;28;24419;-46
2022/06/14 04:10:34;;;;;;;3.10;2.08;;;;;;;;;;5064419;28;24620;-47
2022/06/14 04:13:18;;;;;;;2.70;2.40;;;;;;;;;;5054779;28;25294;-47
2022/06/14 04:15:47;;;;;;;2.75;2.10;;;;;;;;;;5068545;28;24519;-47
2022/06/14 04:18:40;;;;;;;2.38;1.90;;;;;;;;;;5054118;28;24804;-47
2022/06/14 04:21:27;;;;;;;3.10;1.90;;;;;;;;;;5053739;28;24513;-48
2022/06/14 04:24:03;;;;;;;3.00;1.90;;;;;;;;;;5054759;28;24427;-47
2022/06/14 04:26:28;;;;;;;1.87;1.60;;;;;;;;;;5064102;28;24431;-47
2022/06/14 04:29:01;;;;;;;3.45;1.70;;;;;;;;;;5072140;28;24421;-47
2022/06/14 04:31:30;;;;;;;2.45;1.92;;;;;;;;;;5063342;28;24411;-48
2022/06/14 04:34:02;;;;;;;3.55;1.80;;;;;;;;;;5069494;28;24411;-47
2022/06/14 04:36:33;;;;;;;3.05;2.00;;;;;;;;;;5059213;28;24415;-47
2022/06/14 04:39:05;;;;;;;3.70;1.90;;;;;;;;;;5043294;28;24539;-47
2022/06/14 04:41:39;;;;;;;2.50;2.00;;;;;;;;;;5044885;28;24427;-47
2022/06/14 04:44:09;;;;;;;3.90;2.20;;;;;;;;;;5049390;28;24446;-47
2022/06/14 04:46:40;;;;;;;2.90;2.10;;;;;;;;;;5050408;28;24422;-46
2022/06/14 04:49:10;;;;;;;2.53;1.50;;;;;;;;;;5055181;28;25078;-47
2022/06/14 04:51:55;;;;;;;2.90;1.60;;;;;;;;;;5053108;28;24518;-47
2022/06/14 04:54:34;;;;;;;2.05;1.50;;;;;;;;;;5056145;28;24458;-47
2022/06/14 04:57:05;;;;;;;1.90;1.70;;;;;;;;;;5055251;28;24431;-46
2022/06/14 04:59:35;;;;;;;2.00;1.60;;;;;;;;;;5054127;28;24415;-46
2022/06/14 05:02:05;;;;;;;1.80;1.70;;;;;;;;;;5055672;28;25053;-47
2022/06/14 05:04:33;;;;;;;2.50;1.70;;;;;;;;;;5061937;28;24424;-47
2022/06/14 05:07:12;;;;;;;2.60;1.60;;;;;;;;;;5064963;28;24791;-46
2022/06/14 05:09:40;;;;;;;1.80;1.70;;;;;;;;;;5056197;28;24589;-46
2022/06/14 05:12:35;;;;;;;1.77;1.50;;;;;;;;;;5052684;28;25292;-46
2022/06/14 05:15:05;;;;;;;2.65;1.70;;;;;;;;;;5038004;28;24584;-46
2022/06/14 05:17:35;;;;;;;3.50;1.75;;;;;;;;;;5058076;28;24422;-46
2022/06/14 05:20:15;;;;;;;3.20;2.00;;;;;;;;;;5058126;28;24857;-47
2022/06/14 05:22:58;;;;;;;2.20;1.77;;;;;;;;;;5056453;28;24419;-46
2022/06/14 05:25:25;;;;;;;2.35;1.60;;;;;;;;;;5057251;28;25000;-46
2022/06/14 05:27:53;;;;;;;2.15;1.70;;;;;;;;;;5060482;28;24820;-46
2022/06/14 05:30:30;;;;;;;3.00;1.80;;;;;;;;;;5055552;28;24777;-46
2022/06/14 05:32:58;;;;;;;2.42;1.60;;;;;;;;;;5058990;28;24513;-46
2022/06/14 05:35:44;;;;;;;2.90;1.87;;;;;;;;;;5053941;28;24450;-46
2022/06/14 05:38:09;;;;;;;2.67;1.60;;;;;;;;;;5058742;28;24420;-46
2022/06/14 05:40:37;;;;;;;3.08;1.60;;;;;;;;;;5057271;28;24419;-46
2022/06/14 05:43:02;;;;;;;3.17;2.00;;;;;;;;;;5057302;28;24431;-47
2022/06/14 05:45:28;;;;;;;2.35;1.65;;;;;;;;;;5054710;28;24445;-47
2022/06/14 05:47:56;;;;;;;3.30;1.80;;;;;;;;;;5049681;28;24449;-47
2022/06/14 05:50:25;;;;;;;2.53;1.50;;;;;;;;;;5047891;28;24705;-47
2022/06/14 05:52:53;;;;;;;3.08;1.80;;;;;;;;;;5067189;28;24421;-47
2022/06/14 05:55:27;;;;;;;2.60;1.45;;;;;;;;;;5069350;28;24505;-47
2022/06/14 05:58:01;;;;;;;1.98;1.27;;;;;;;;;;5069828;28;24426;-46
2022/06/14 06:00:32;;;;;;;2.37;1.30;;;;;;;;;;5071184;28;24426;-46
2022/06/14 06:02:57;;;;;;;2.05;1.60;;;;;;;;;;5061230;28;24475;-47
2022/06/14 06:05:40;;;;;;;2.10;1.50;;;;;;;;;;5064517;28;26269;-47
2022/06/14 06:08:32;;;;;;;4.65;1.45;;;;;;;;;;5061342;28;24418;-47
2022/06/14 06:11:00;;;;;;;3.30;1.58;;;;;;;;;;5050328;28;24423;-49
2022/06/14 06:13:33;;;;;;;3.75;2.10;;;;;;;;;;5054685;28;24434;-49
2022/06/14 06:16:08;;;;;;;2.20;1.42;;;;;;;;;;5050417;28;24972;-49
2022/06/14 06:18:37;;;;;;;2.30;1.70;;;;;;;;;;5061078;28;24801;-49
2022/06/14 06:21:11;;;;;;;1.60;1.50;;;;;;;;;;5055233;28;26186;-49
2022/06/14 06:23:59;;;;;;;2.22;1.60;;;;;;;;;;5052364;28;24422;-48
2022/06/14 06:26:29;;;;;;;1.73;1.63;;;;;;;;;;5060321;28;24883;-50
2022/06/14 06:28:57;;;;;;;3.10;1.65;;;;;;;;;;5058645;28;24450;-48
2022/06/14 06:31:32;;;;;;;2.20;1.40;;;;;;;;;;5062265;28;24872;-48
2022/06/14 06:33:59;;;;;;;3.53;1.90;;;;;;;;;;5047304;28;24423;-49
2022/06/14 06:36:43;;;;;;;3.38;1.40;;;;;;;;;;5056361;28;24422;-48
2022/06/14 06:39:19;;;;;;;2.50;1.92;;;;;;;;;;5060137;28;24441;-48
2022/06/14 06:41:51;;;;;;;3.25;1.70;;;;;;;;;;5059164;28;24458;-48
2022/06/14 06:44:21;;;;;;;2.83;1.50;;;;;;;;;;5050972;28;24527;-47
2022/06/14 06:46:49;;;;;;;2.10;1.63;;;;;;;;;;5052890;28;24623;-49
2022/06/14 06:49:15;;;;;;;2.00;1.50;;;;;;;;;;5053062;28;24422;-48
2022/06/14 06:51:44;;;;;;;3.72;1.60;;;;;;;;;;5055817;28;24446;-48
2022/06/14 06:54:18;;;;;;;1.35;1.25;;;;;;;;;;5056370;28;24540;-47
2022/06/14 06:56:45;;;;;;;4.40;1.75;;;;;;;;;;5056981;28;24990;-47
2022/06/14 06:59:28;;;;;;;1.88;1.40;;;;;;;;;;5059095;28;24468;-48
2022/06/14 07:01:55;;;;;;;3.30;1.70;;;;;;;;;;5050487;28;24786;-48
2022/06/14 07:05:03;;;;;;;3.00;1.52;;;;;;;;;;5058363;28;24510;-48
2022/06/14 07:07:12;;;;;;;3.40;1.42;;;;;;;;;;5059666;28;24399;-48
2022/06/14 07:09:42;;;;;;;2.35;1.50;;;;;;;;;;5061152;28;24440;-49
2022/06/14 07:12:12;;;;;;;3.10;1.70;;;;;;;;;;5062172;28;24444;-49
2022/06/14 07:14:48;;;;;;;2.50;1.30;;;;;;;;;;5063853;28;24422;-48
2022/06/14 07:17:19;;;;;;;2.42;1.60;;;;;;;;;;5064391;28;24375;-48
2022/06/14 07:19:47;;;;;;;2.70;1.70;;;;;;;;;;5060929;28;24410;-49
2022/06/14 07:22:19;;;;;;;3.13;1.70;;;;;;;;;;5060330;28;24726;-48
2022/06/14 07:25:00;;;;;;;2.15;1.30;;;;;;;;;;5062685;28;25006;-48
2022/06/14 07:27:30;;;;;;;1.98;1.42;;;;;;;;;;5065887;28;24402;-49
2022/06/14 07:30:05;;;;;;;4.90;1.75;;;;;;;;;;5066078;28;25053;-48
2022/06/14 07:32:34;;;;;;;2.40;1.50;;;;;;;;;;5060358;28;24460;-49
2022/06/14 07:35:00;;;;;;;2.30;1.30;;;;;;;;;;5061155;28;25830;-48
2022/06/14 07:37:25;;;;;;;3.80;1.93;;;;;;;;;;5065644;28;25232;-49
2022/06/14 07:40:14;;;;;;;3.80;1.90;;;;;;;;;;5066046;28;24437;-49
2022/06/14 07:42:39;;;;;;;2.40;1.42;;;;;;;;;;5060016;28;24426;-46
2022/06/14 07:45:04;;;;;;;2.03;1.70;;;;;;;;;;5062673;28;24442;-46
2022/06/14 07:47:29;;;;;;;1.88;1.42;;;;;;;;;;5060324;28;24390;-48
2022/06/14 07:50:04;;;;;;;2.70;1.58;;;;;;;;;;5063671;28;24390;-49
2022/06/14 07:52:50;;;;;;;3.05;1.65;;;;;;;;;;5065413;28;24425;-48
2022/06/14 07:55:18;;;;;;;1.48;1.20;;;;;;;;;;5060298;28;24422;-47
2022/06/14 07:57:45;;;;;;;2.20;1.30;;;;;;;;;;5060072;28;24430;-49
2022/06/14 08:03:03;;;;;;;1.65;1.10;;;;;;;;;;5062640;28;25267;-49
2022/06/14 08:05:33;;;;;;;6.07;1.60;;;;;;;;;;5064013;28;24426;-49
2022/06/14 08:08:00;;;;;;;3.72;1.40;;;;;;;;;;5065503;28;24377;-49
2022/06/14 08:10:29;;;;;;;2.92;1.35;;;;;;;;;;5061132;28;24850;-48
2022/06/14 08:12:58;;;;;;;2.45;1.25;;;;;;;;;;5061511;28;24432;-49
2022/06/14 08:15:26;;;;;;;1.80;1.30;;;;;;;;;;5060270;28;24426;-48
2022/06/14 08:18:03;;;;;;;2.00;1.20;;;;;;;;;;5065347;28;24481;-48
2022/06/14 08:20:39;;;;;;;3.87;1.40;;;;;;;;;;5064482;28;24498;-48
2022/06/14 08:23:09;;;;;;;2.20;1.50;;;;;;;;;;5063025;28;24458;-48
2022/06/14 08:25:37;;;;;;;2.67;1.40;;;;;;;;;;5058576;28;24487;-49
2022/06/14 08:28:24;;;;;;;1.60;1.50;;;;;;;;;;5061541;28;24412;-47
2022/06/14 08:30:53;;;;;;;3.70;1.50;;;;;;;;;;5061422;28;24925;-48
2022/06/14 08:33:24;;;;;;;2.40;1.27;;;;;;;;;;5064203;28;24394;-48
2022/06/14 08:35:55;;;;;;;2.90;1.50;;;;;;;;;;5062534;28;24419;-47
2022/06/14 08:38:49;;;;;;;3.30;1.50;;;;;;;;;;5061018;28;24524;-47
2022/06/14 08:41:39;;;;;;;3.40;2.00;;;;;;;;;;5049674;28;24434;-48
2022/06/14 08:44:09;;;;;;;3.30;2.15;;;;;;;;;;5062438;28;24800;-48
2022/06/14 08:46:47;;;;;;;1.95;1.73;;;;;;;;;;5062921;28;24907;-49
2022/06/14 08:49:30;;;;;;;3.78;2.55;;;;;;;;;;5062757;28;24379;-49
2022/06/14 08:52:08;;;;;;;4.32;2.30;;;;;;;;;;5064210;28;24464;-48
2022/06/14 08:54:48;;;;;;;3.08;2.17;;;;;;;;;;5062708;28;24406;-50
2022/06/14 08:57:13;;;;;;;3.90;2.30;;;;;;;;;;5056760;28;25046;-49
2022/06/14 08:59:52;;;;;;;2.83;2.10;;;;;;;;;;5062101;28;24804;-48
2022/06/14 09:02:27;;;;;;;3.00;2.00;;;;;;;;;;5063945;28;24670;-48
2022/06/14 09:05:11;;;;;;;3.22;1.80;;;;;;;;;;5064112;28;24470;-48
2022/06/14 09:07:55;;;;;;;3.75;2.10;;;;;;;;;;5060986;28;25022;-48
2022/06/14 09:10:20;;;;;;;2.65;2.20;;;;;;;;;;5058506;28;24391;-49
2022/06/14 09:13:03;;;;;;;3.20;2.20;;;;;;;;;;5058639;28;24942;-48
2022/06/14 09:15:30;;;;;;;2.95;2.00;;;;;;;;;;5063559;28;25370;-48
2022/06/14 09:18:02;;;;;;;3.50;2.10;;;;;;;;;;5061079;28;24433;-47
2022/06/14 09:20:30;;;;;;;2.70;2.00;;;;;;;;;;5063731;28;24406;-49
2022/06/14 09:23:01;;;;;;;2.00;1.80;;;;;;;;;;5061872;28;24478;-48
2022/06/14 09:25:29;;;;;;;2.70;2.10;;;;;;;;;;5058315;28;25030;-47
2022/06/14 09:28:03;;;;;;;2.60;1.98;;;;;;;;;;5057433;28;24858;-47
2022/06/14 09:30:38;;;;;;;2.70;1.90;;;;;;;;;;5063585;28;24406;-49
2022/06/14 09:33:09;;;;;;;2.65;1.90;;;;;;;;;;5062117;28;24983;-48
2022/06/14 09:35:37;;;;;;;4.47;2.35;;;;;;;;;;5061575;28;24753;-48
2022/06/14 09:38:35;;;;;;;3.10;2.30;;;;;;;;;;5057887;28;24425;-47
2022/06/14 09:41:13;;;;;;;2.50;2.20;;;;;;;;;;5060341;28;24398;-49
2022/06/14 09:43:44;;;;;;;2.85;2.10;;;;;;;;;;5061285;28;24982;-48
2022/06/14 09:46:09;;;;;;;2.17;1.90;;;;;;;;;;5061640;28;24986;-48
2022/06/14 09:48:43;;;;;;;2.75;2.00;;;;;;;;;;5061395;28;24980;-48
2022/06/14 09:51:27;;;;;;;3.30;2.03;;;;;;;;;;5038049;28;24431;-47
2022/06/14 09:54:07;;;;;;;3.40;2.20;;;;;;;;;;5039814;28;24925;-48
2022/06/14 09:56:44;;;;;;;3.30;2.42;;;;;;;;;;5041574;28;24398;-49
2022/06/14 09:59:21;;;;;;;4.25;2.17;;;;;;;;;;5055115;28;25030;-49
2022/06/14 10:01:46;;;;;;;4.70;2.10;;;;;;;;;;5063499;28;24536;-49
2022/06/14 10:04:27;;;;;;;2.72;2.20;;;;;;;;;;5057637;28;24462;-49
2022/06/14 10:07:11;;;;;;;2.90;2.00;;;;;;;;;;5058365;28;24639;-47
2022/06/14 10:09:45;;;;;;;2.88;2.08;;;;;;;;;;5060337;28;24414;-49
2022/06/14 10:12:11;;;;;;;4.18;2.40;;;;;;;;;;5059168;28;24542;-48
2022/06/14 10:14:56;;;;;;;5.15;2.55;;;;;;;;;;5062790;28;24460;-49
2022/06/14 10:17:21;;;;;;;2.83;1.88;;;;;;;;;;5058187;28;24956;-48
2022/06/14 10:20:05;;;;;;;2.30;1.60;;;;;;;;;;5056849;28;24559;-48
2022/06/14 10:22:40;;;;;;;1.95;1.50;;;;;;;;;;5062802;28;24407;-48
2022/06/14 10:25:16;;;;;;;2.10;1.63;;;;;;;;;;5061562;28;24947;-47
2022/06/14 10:30:43;;;;;;;3.60;2.00;;;;;;;;;;5057513;28;24790;-49
2022/06/14 10:33:20;;;;;;;2.63;1.93;;;;;;;;;;5058541;28;24518;-48
2022/06/14 10:35:51;;;;;;;3.60;2.20;;;;;;;;;;5062925;28;24495;-48
2022/06/14 10:38:39;;;;;;;2.50;1.80;;;;;;;;;;5059636;28;24445;-49
2022/06/14 10:41:13;;;;;;;2.80;1.85;;;;;;;;;;5058287;28;24453;-49
2022/06/14 10:43:44;;;;;;;4.90;1.90;;;;;;;;;;5060104;28;24415;-48
2022/06/14 10:46:14;;;;;;;3.97;2.23;;;;;;;;;;5063498;28;24981;-48
2022/06/14 10:48:46;;;;;;;3.70;2.05;;;;;;;;;;5066608;28;24485;-48
2022/06/14 10:51:21;;;;;;;2.33;2.10;;;;;;;;;;5063097;28;24484;-47
2022/06/14 10:53:55;;;;;;;3.30;1.92;;;;;;;;;;5066378;28;24402;-48
2022/06/14 10:56:20;;;;;;;2.92;1.90;;;;;;;;;;5061272;28;24418;-49
2022/06/14 10:58:48;;;;;;;2.95;2.10;;;;;;;;;;5061131;28;24429;-48
2022/06/14 11:01:34;;;;;;;3.63;2.30;;;;;;;;;;5060718;28;24457;-49
2022/06/14 11:04:08;;;;;;;2.70;2.03;;;;;;;;;;5065660;28;24407;-49
2022/06/14 11:07:00;;;;;;;6.38;2.08;;;;;;;;;;5066285;28;24386;-48
2022/06/14 11:09:34;;;;;;;2.15;2.03;;;;;;;;;;5060882;28;24916;-49
2022/06/14 11:12:05;;;;;;;2.47;1.80;;;;;;;;;;5060640;28;24426;-48
2022/06/14 11:14:49;;;;;;;2.33;1.80;;;;;;;;;;5065999;28;24390;-49
2022/06/14 11:17:33;;;;;;;2.95;2.00;;;;;;;;;;5064312;28;24395;-49
2022/06/14 11:19:58;;;;;;;3.37;1.90;;;;;;;;;;5066307;28;24374;-49
2022/06/14 11:22:40;;;;;;;2.80;1.90;;;;;;;;;;5060353;28;24598;-48
2022/06/14 11:25:15;;;;;;;2.72;2.00;;;;;;;;;;5059928;28;24427;-48
2022/06/14 11:27:53;;;;;;;3.35;2.00;;;;;;;;;;5064172;28;24489;-48
2022/06/14 11:30:43;;;;;;;3.75;2.20;;;;;;;;;;5064005;28;24946;-48
2022/06/14 11:33:21;;;;;;;3.23;2.00;;;;;;;;;;5062009;28;24507;-47
2022/06/14 11:35:49;;;;;;;2.85;1.85;;;;;;;;;;5062356;28;24979;-48
2022/06/14 11:38:32;;;;;;;2.00;1.80;;;;;;;;;;5060618;28;25016;-49
2022/06/14 11:41:00;;;;;;;2.33;1.90;;;;;;;;;;5062112;28;24426;-48
2022/06/14 11:43:32;;;;;;;3.20;2.08;;;;;;;;;;5065592;28;24414;-48
2022/06/14 11:45:57;;;;;;;1.90;1.70;;;;;;;;;;5066023;28;24419;-48
2022/06/14 11:48:27;;;;;;;1.85;1.33;;;;;;;;;;5064036;28;25028;-48
2022/06/14 11:51:03;;;;;;;3.10;1.80;;;;;;;;;;5060197;28;24446;-47
2022/06/14 11:53:36;;;;;;;2.13;1.50;;;;;;;;;;5061029;28;24441;-48
2022/06/14 11:56:19;;;;;;;2.38;1.60;;;;;;;;;;5059058;28;24423;-48
2022/06/14 11:59:03;;;;;;;3.73;2.20;;;;;;;;;;5065580;28;24791;-47
2022/06/14 12:01:42;;;;;;;2.78;1.88;;;;;;;;;;5063473;28;24431;-48
2022/06/14 12:04:07;;;;;;;3.60;2.00;;;;;;;;;;5061637;28;24940;-48
2022/06/14 12:06:51;;;;;;;4.03;1.60;;;;;;;;;;5060891;28;24418;-48
2022/06/14 12:09:29;;;;;;;4.83;2.20;;;;;;;;;;5064868;28;24402;-48
2022/06/14 12:11:57;;;;;;;2.70;1.90;;;;;;;;;;5065184;28;24825;-49
2022/06/14 12:14:31;;;;;;;2.30;1.80;;;;;;;;;;5062980;28;24494;-48
2022/06/14 12:17:02;;;;;;;3.60;1.83;;;;;;;;;;5060171;28;24430;-47
2022/06/14 12:19:31;;;;;;;2.10;1.90;;;;;;;;;;5063286;28;24407;-48
2022/06/14 12:22:26;;;;;;;2.67;1.85;;;;;;;;;;5063238;28;24421;-48
2022/06/14 12:27:33;;;;;;;3.88;1.80;;;;;;;;;;5061497;28;24398;-48
2022/06/14 12:29:59;;;;;;;3.47;1.97;;;;;;;;;;5061121;28;24395;-48
2022/06/14 12:32:30;;;;;;;3.23;2.00;;;;;;;;;;5063083;28;24876;-48
2022/06/14 12:35:12;;;;;;;2.40;1.88;;;;;;;;;;5063028;28;24407;-48
2022/06/14 12:37:45;;;;;;;3.90;1.70;;;;;;;;;;5060461;28;24572;-47
2022/06/14 12:40:16;;;;;;;1.77;1.50;;;;;;;;;;5062799;28;24774;-49
2022/06/14 12:42:48;;;;;;;1.98;1.67;;;;;;;;;;5058939;28;24774;-47
2022/06/14 12:45:24;;;;;;;2.92;1.67;;;;;;;;;;5060616;28;24419;-49
2022/06/14 12:48:08;;;;;;;2.00;1.60;;;;;;;;;;5062267;28;24434;-47
2022/06/14 12:50:38;;;;;;;2.72;1.80;;;;;;;;;;5064610;28;24482;-47
2022/06/14 12:53:13;;;;;;;3.22;2.20;;;;;;;;;;5062626;28;24398;-47
2022/06/14 12:55:46;;;;;;;4.38;2.25;;;;;;;;;;5060921;28;24395;-48
2022/06/14 12:58:14;;;;;;;2.20;1.90;;;;;;;;;;5056926;28;24992;-48
2022/06/14 13:00:42;;;;;;;2.25;1.80;;;;;;;;;;5062188;28;24410;-48
2022/06/14 13:03:29;;;;;;;3.50;1.92;;;;;;;;;;5060809;28;24458;-48
2022/06/14 13:05:58;;;;;;;3.85;2.00;;;;;;;;;;5063807;28;25392;-47
2022/06/14 13:08:46;;;;;;;2.63;2.10;;;;;;;;;;5060847;28;24390;-48
2022/06/14 13:11:19;;;;;;;4.70;2.30;;;;;;;;;;5058746;28;24422;-48
2022/06/14 13:13:58;;;;;;;4.83;2.10;;;;;;;;;;5058358;28;24527;-48
2022/06/14 13:16:32;;;;;;;4.43;2.20;;;;;;;;;;5061737;28;24508;-48
2022/06/14 13:19:09;;;;;;;4.82;2.25;;;;;;;;;;5063682;28;24406;-48
2022/06/14 13:21:44;;;;;;;1.70;1.50;;;;;;;;;;5058135;28;24402;-47
2022/06/14 13:24:20;;;;;;;3.67;1.75;;;;;;;;;;5058506;28;24434;-47
2022/06/14 13:27:04;;;;;;;2.63;1.70;;;;;;;;;;5061954;28;24488;-46
2022/06/14 13:29:32;;;;;;;2.22;2.03;;;;;;;;;;5063575;28;24394;-48
2022/06/14 13:32:21;;;;;;;2.50;1.80;;;;;;;;;;5063646;28;24953;-48
2022/06/14 13:34:59;;;;;;;2.50;1.70;;;;;;;;;;5054704;28;24429;-48
2022/06/14 13:37:34;;;;;;;2.38;1.60;;;;;;;;;;5059847;28;25114;-48
2022/06/14 13:40:05;;;;;;;3.47;1.60;;;;;;;;;;5063280;28;24394;-48
2022/06/14 13:42:36;;;;;;;1.60;1.50;;;;;;;;;;5063458;28;24425;-48
2022/06/14 13:45:21;;;;;;;2.30;1.70;;;;;;;;;;5062003;28;24446;-48
2022/06/14 13:47:52;;;;;;;2.25;1.70;;;;;;;;;;5061882;28;24470;-47
2022/06/14 13:50:20;;;;;;;3.70;1.70;;;;;;;;;;5058105;28;24383;-49
2022/06/14 13:52:49;;;;;;;2.20;1.70;;;;;;;;;;5056120;28;24452;-48
2022/06/14 13:55:33;;;;;;;4.38;1.90;;;;;;;;;;5058237;28;24527;-49
2022/06/14 13:57:58;;;;;;;2.90;1.70;;;;;;;;;;5063574;28;24482;-48
2022/06/14 14:00:24;;;;;;;2.60;1.77;;;;;;;;;;5059712;28;24503;-47
2022/06/14 14:03:12;;;;;;;2.70;1.60;;;;;;;;;;5057764;28;24519;-48
2022/06/14 14:05:40;;;;;;;3.50;1.55;;;;;;;;;;5060367;28;24509;-48
2022/06/14 14:08:09;;;;;;;4.40;1.70;;;;;;;;;;5061841;28;24423;-49
2022/06/14 14:10:43;;;;;;;2.70;1.70;;;;;;;;;;5063445;28;24452;-48
2022/06/14 14:13:11;;;;;;;2.13;1.90;;;;;;;;;;5057502;28;24399;-48
2022/06/14 14:15:46;;;;;;;3.47;1.70;;;;;;;;;;5057282;28;26244;-48
2022/06/14 14:18:19;;;;;;;3.67;1.60;;;;;;;;;;5060746;28;24745;-48
2022/06/14 14:20:48;;;;;;;2.08;1.60;;;;;;;;;;5063253;28;24769;-47
2022/06/14 14:23:16;;;;;;;2.45;1.90;;;;;;;;;;5061267;28;24414;-48
2022/06/14 14:25:50;;;;;;;3.15;1.80;;;;;;;;;;5060857;28;25761;-48
2022/06/14 14:28:20;;;;;;;3.67;1.98;;;;;;;;;;5056594;28;24406;-48
2022/06/14 14:30:54;;;;;;;2.70;1.67;;;;;;;;;;5056273;28;24450;-48
2022/06/14 14:33:55;;;;;;;2.00;1.80;;;;;;;;;;5062830;28;24507;-47
2022/06/14 14:36:39;;;;;;;4.37;2.00;;;;;;;;;;5018263;28;25010;-49
2022/06/14 14:39:14;;;;;;;2.33;1.70;;;;;;;;;;5057231;28;24411;-48
2022/06/14 14:41:44;;;;;;;4.30;1.80;;;;;;;;;;5057037;28;24405;-47
2022/06/14 14:44:21;;;;;;;4.20;1.85;;;;;;;;;;5060240;28;25021;-48
2022/06/14 14:46:52;;;;;;;2.75;1.70;;;;;;;;;;5062331;28;24387;-47
2022/06/14 14:49:40;;;;;;;1.92;1.83;;;;;;;;;;5060651;28;24395;-47
2022/06/14 14:52:21;;;;;;;1.70;1.60;;;;;;;;;;5052738;28;24521;-47
2022/06/14 14:55:00;;;;;;;3.70;2.40;;;;;;;;;;5056574;28;24671;-48
2022/06/14 14:57:48;;;;;;;2.80;2.60;;;;;;;;;;5060604;28;24394;-48
2022/06/14 15:00:20;;;;;;;2.70;2.50;;;;;;;;;;5054773;28;24411;-48
2022/06/14 15:05:57;;;;;;;2.80;2.60;;;;;;;;;;5056826;28;24402;-47
2022/06/14 15:08:25;;;;;;;3.10;2.13;;;;;;;;;;5062174;28;24524;-47
2022/06/14 15:11:02;;;;;;;4.07;2.40;;;;;;;;;;5062167;28;24446;-48
2022/06/14 15:13:40;;;;;;;2.72;2.50;;;;;;;;;;5060223;28;24765;-48
2022/06/14 15:16:13;;;;;;;2.60;2.40;;;;;;;;;;5056473;28;24383;-48
2022/06/14 15:21:26;;;;;;;3.20;2.30;;;;;;;;;;5062096;28;24874;-49
2022/06/14 15:23:55;;;;;;;3.13;2.53;;;;;;;;;;5061869;28;24414;-48
2022/06/14 15:26:21;;;;;;;2.47;2.30;;;;;;;;;;5058400;28;24941;-48
2022/06/14 15:28:50;;;;;;;2.80;2.60;;;;;;;;;;5057850;28;24736;-49
2022/06/14 15:31:25;;;;;;;2.33;2.13;;;;;;;;;;5063981;28;24446;-47
2022/06/14 15:33:51;;;;;;;3.67;2.80;;;;;;;;;;5064921;28;25134;-48
2022/06/14 15:36:28;;;;;;;2.90;2.05;;;;;;;;;;5064140;28;24498;-48
2022/06/14 15:38:56;;;;;;;3.30;2.30;;;;;;;;;;5064250;28;24403;-49
2022/06/14 15:41:24;;;;;;;4.43;2.78;;;;;;;;;;5059168;28;24444;-48
2022/06/14 15:44:13;;;;;;;3.55;2.80;;;;;;;;;;5059045;28;24438;-48